sensor_id;sensor_type;location;lat;lon;timestamp;pressure;altitude;pressure_sealevel;temperature;humidity
13015;BME280;6573;57.696;11.950;2023-02-11T00:01:32;100977.88;;;10.38;100.00
13015;BME280;6573;57.696;11.950;2023-02-11T00:04:03;100988.41;;;10.29;100.00
13015;BME280;6573;57.696;11.950;2023-02-11T00:06:33;100988.38;;;10.32;100.00
13015;BME280;6573;57.696;11.950;2023-02-11T00:09:02;100979.63;;;10.33;100.00
13015;BME280;6573;57.696;11.950;2023-02-11T00:11:30;100988.41;;;10.42;100.00
13015;BME280;6573;57.696;11.950;2023-02-11T00:14:00;100980.50;;;10.20;100.00
13015;BME280;6573;57.696;11.950;2023-02-11T00:16:29;100960.34;;;10.16;100.00
13015;BME280;6573;57.696;11.950;2023-02-11T00:18:58;100970.88;;;10.28;100.00
13015;BME280;6573;57.696;11.950;2023-02-11T00:21:28;100989.28;;;10.39;100.00
13015;BME280;6573;57.696;11.950;2023-02-11T00:23:57;100980.53;;;10.46;100.00
13015;BME280;6573;57.696;11.950;2023-02-11T00:26:29;100955.97;;;10.29;100.00
13015;BME280;6573;57.696;11.950;2023-02-11T00:28:58;100937.53;;;10.39;100.00
13015;BME280;6573;57.696;11.950;2023-02-11T00:31:26;100928.81;;;10.47;100.00
13015;BME280;6573;57.696;11.950;2023-02-11T00:33:57;100933.16;;;10.32;100.00
13015;BME280;6573;57.696;11.950;2023-02-11T00:36:28;100941.06;;;10.29;100.00
13015;BME280;6573;57.696;11.950;2023-02-11T00:38:57;100936.63;;;10.03;100.00
13015;BME280;6573;57.696;11.950;2023-02-11T00:41:26;100953.31;;;10.18;100.00
13015;BME280;6573;57.696;11.950;2023-02-11T00:43:54;100948.00;;;9.94;100.00
13015;BME280;6573;57.696;11.950;2023-02-11T00:46:22;100951.59;;;10.14;100.00
13015;BME280;6573;57.696;11.950;2023-02-11T00:48:51;100949.84;;;10.28;100.00
13015;BME280;6573;57.696;11.950;2023-02-11T00:51:23;100953.34;;;10.24;100.00
13015;BME280;6573;57.696;11.950;2023-02-11T00:53:54;100955.09;;;10.19;100.00
13015;BME280;6573;57.696;11.950;2023-02-11T00:56:22;100946.25;;;10.02;100.00
13015;BME280;6573;57.696;11.950;2023-02-11T00:58:50;100925.25;;;10.11;100.00
13015;BME280;6573;57.696;11.950;2023-02-11T01:01:19;100939.25;;;10.07;100.00
13015;BME280;6573;57.696;11.950;2023-02-11T01:03:47;100923.50;;;10.10;100.00
13015;BME280;6573;57.696;11.950;2023-02-11T01:06:16;100902.44;;;9.89;100.00
13015;BME280;6573;57.696;11.950;2023-02-11T01:08:45;100944.50;;;10.06;100.00
13015;BME280;6573;57.696;11.950;2023-02-11T01:11:16;100946.28;;;9.99;100.00
13015;BME280;6573;57.696;11.950;2023-02-11T01:13:45;100932.25;;;10.09;100.00
13015;BME280;6573;57.696;11.950;2023-02-11T01:16:14;100940.16;;;10.20;100.00
13015;BME280;6573;57.696;11.950;2023-02-11T01:18:43;100955.09;;;10.28;100.00
13015;BME280;6573;57.696;11.950;2023-02-11T01:21:11;100943.69;;;10.14;100.00
13015;BME280;6573;57.696;11.950;2023-02-11T01:23:40;100944.50;;;10.10;100.00
13015;BME280;6573;57.696;11.950;2023-02-11T01:26:08;100951.50;;;9.96;100.00
13015;BME280;6573;57.696;11.950;2023-02-11T01:28:38;100930.50;;;10.08;100.00
13015;BME280;6573;57.696;11.950;2023-02-11T01:31:06;100930.56;;;10.14;100.00
13015;BME280;6573;57.696;11.950;2023-02-11T01:33:35;100941.06;;;10.23;100.00
13015;BME280;6573;57.696;11.950;2023-02-11T01:36:04;100942.81;;;10.15;100.00
13015;BME280;6573;57.696;11.950;2023-02-11T01:38:33;100927.00;;;10.09;100.00
13015;BME280;6573;57.696;11.950;2023-02-11T01:41:04;100950.69;;;10.14;100.00
13015;BME280;6573;57.696;11.950;2023-02-11T01:43:34;100953.31;;;10.15;100.00
13015;BME280;6573;57.696;11.950;2023-02-11T01:46:31;100937.53;;;10.12;100.00
13015;BME280;6573;57.696;11.950;2023-02-11T01:49:05;100937.56;;;10.21;100.00
13015;BME280;6573;57.696;11.950;2023-02-11T01:51:37;100907.72;;;10.04;100.00
13015;BME280;6573;57.696;11.950;2023-02-11T01:54:08;100962.00;;;10.02;100.00
13015;BME280;6573;57.696;11.950;2023-02-11T01:56:54;100969.97;;;10.13;100.00
13015;BME280;6573;57.696;11.950;2023-02-11T01:59:46;100960.28;;;10.01;100.00
13015;BME280;6573;57.696;11.950;2023-02-11T02:02:19;100941.00;;;10.08;100.00
13015;BME280;6573;57.696;11.950;2023-02-11T02:04:52;100953.31;;;10.12;100.00
13015;BME280;6573;57.696;11.950;2023-02-11T02:07:29;100970.81;;;10.04;100.00
13015;BME280;6573;57.696;11.950;2023-02-11T02:10:03;100963.81;;;10.09;100.00
13015;BME280;6573;57.696;11.950;2023-02-11T02:12:31;100981.34;;;10.13;100.00
13015;BME280;6573;57.696;11.950;2023-02-11T02:15:19;100969.09;;;10.21;100.00
13015;BME280;6573;57.696;11.950;2023-02-11T02:17:56;100970.81;;;10.10;100.00
13015;BME280;6573;57.696;11.950;2023-02-11T02:20:48;100971.69;;;10.02;100.00
13015;BME280;6573;57.696;11.950;2023-02-11T02:23:26;100965.53;;;9.92;100.00
13015;BME280;6573;57.696;11.950;2023-02-11T02:26:17;100939.25;;;10.10;100.00
13015;BME280;6573;57.696;11.950;2023-02-11T02:31:58;100939.22;;;9.95;100.00
13015;BME280;6573;57.696;11.950;2023-02-11T02:34:35;100956.78;;;10.11;100.00
13015;BME280;6573;57.696;11.950;2023-02-11T02:37:09;100933.16;;;10.20;100.00
13015;BME280;6573;57.696;11.950;2023-02-11T02:39:39;100900.69;;;9.79;100.00
13015;BME280;6573;57.696;11.950;2023-02-11T02:42:08;100938.41;;;10.20;100.00
13015;BME280;6573;57.696;11.950;2023-02-11T02:44:37;100934.91;;;10.15;100.00
13015;BME280;6573;57.696;11.950;2023-02-11T02:47:05;100926.13;;;10.09;100.00
13015;BME280;6573;57.696;11.950;2023-02-11T02:49:35;100900.72;;;10.09;100.00
13015;BME280;6573;57.696;11.950;2023-02-11T02:52:11;100905.94;;;10.00;100.00
13015;BME280;6573;57.696;11.950;2023-02-11T02:55:19;100909.47;;;10.08;100.00
13015;BME280;6573;57.696;11.950;2023-02-11T02:57:59;100921.78;;;10.18;100.00
13015;BME280;6573;57.696;11.950;2023-02-11T03:00:36;100927.91;;;10.17;100.00
13015;BME280;6573;57.696;11.950;2023-02-11T03:03:16;100936.66;;;10.22;100.00
13015;BME280;6573;57.696;11.950;2023-02-11T03:05:53;100955.91;;;10.02;100.00
13015;BME280;6573;57.696;11.950;2023-02-11T03:08:28;100949.81;;;10.13;100.00
13015;BME280;6573;57.696;11.950;2023-02-11T03:10:59;100944.50;;;10.10;100.00
13015;BME280;6573;57.696;11.950;2023-02-11T03:13:31;100930.50;;;10.08;100.00
13015;BME280;6573;57.696;11.950;2023-02-11T03:16:04;100919.13;;;10.09;100.00
13015;BME280;6573;57.696;11.950;2023-02-11T03:18:36;100928.78;;;10.13;100.00
13015;BME280;6573;57.696;11.950;2023-02-11T03:21:09;100939.31;;;10.19;100.00
13015;BME280;6573;57.696;11.950;2023-02-11T03:23:40;100969.03;;;10.03;100.00
13015;BME280;6573;57.696;11.950;2023-02-11T03:26:15;100953.31;;;10.12;100.00
13015;BME280;6573;57.696;11.950;2023-02-11T03:28:51;100920.84;;;9.82;100.00
13015;BME280;6573;57.696;11.950;2023-02-11T03:31:28;100960.31;;;10.13;100.00
13015;BME280;6573;57.696;11.950;2023-02-11T03:34:03;100965.59;;;10.13;100.00
13015;BME280;6573;57.696;11.950;2023-02-11T03:36:40;100944.56;;;10.31;100.00
13015;BME280;6573;57.696;11.950;2023-02-11T03:39:15;100970.84;;;10.13;100.00
13015;BME280;6573;57.696;11.950;2023-02-11T03:41:47;100944.56;;;10.16;100.00
13015;BME280;6573;57.696;11.950;2023-02-11T03:44:17;100954.22;;;10.40;100.00
13015;BME280;6573;57.696;11.950;2023-02-11T03:46:49;100948.97;;;10.38;100.00
13015;BME280;6573;57.696;11.950;2023-02-11T03:49:20;100955.09;;;10.40;100.00
13015;BME280;6573;57.696;11.950;2023-02-11T03:51:51;100956.84;;;10.14;100.00
13015;BME280;6573;57.696;11.950;2023-02-11T03:54:25;100956.81;;;10.17;100.00
13015;BME280;6573;57.696;11.950;2023-02-11T03:56:57;100962.09;;;10.31;100.00
13015;BME280;6573;57.696;11.950;2023-02-11T03:59:27;100961.25;;;10.32;100.00
13015;BME280;6573;57.696;11.950;2023-02-11T04:01:55;100953.25;;;10.00;100.00
13015;BME280;6573;57.696;11.950;2023-02-11T04:04:25;100937.56;;;10.21;100.00
13015;BME280;6573;57.696;11.950;2023-02-11T04:06:54;100942.81;;;10.18;100.00
13015;BME280;6573;57.696;11.950;2023-02-11T04:09:23;100918.22;;;10.10;100.00
13015;BME280;6573;57.696;11.950;2023-02-11T04:11:51;100891.06;;;10.08;100.00
13015;BME280;6573;57.696;11.950;2023-02-11T04:14:19;100891.94;;;10.10;100.00
13015;BME280;6573;57.696;11.950;2023-02-11T04:16:47;100877.97;;;10.22;100.00
13015;BME280;6573;57.696;11.950;2023-02-11T04:19:16;100859.53;;;9.92;100.00
13015;BME280;6573;57.696;11.950;2023-02-11T04:21:44;100835.88;;;9.90;100.00
13015;BME280;6573;57.696;11.950;2023-02-11T04:24:14;100833.25;;;10.05;100.00
13015;BME280;6573;57.696;11.950;2023-02-11T04:26:42;100827.97;;;10.02;100.00
13015;BME280;6573;57.696;11.950;2023-02-11T04:29:10;100858.63;;;9.70;100.00
13015;BME280;6573;57.696;11.950;2023-02-11T04:31:39;100919.94;;;9.78;100.00
13015;BME280;6573;57.696;11.950;2023-02-11T04:34:07;100918.22;;;9.89;100.00
13015;BME280;6573;57.696;11.950;2023-02-11T04:36:35;100926.97;;;10.00;100.00
13015;BME280;6573;57.696;11.950;2023-02-11T04:39:04;100918.22;;;9.86;100.00
13015;BME280;6573;57.696;11.950;2023-02-11T04:41:33;100933.13;;;9.99;100.00
13015;BME280;6573;57.696;11.950;2023-02-11T04:44:02;100926.97;;;9.79;100.00
13015;BME280;6573;57.696;11.950;2023-02-11T04:46:30;100928.72;;;9.83;100.00
13015;BME280;6573;57.696;11.950;2023-02-11T04:48:59;100926.97;;;9.79;100.00
13015;BME280;6573;57.696;11.950;2023-02-11T04:51:27;100893.69;;;9.81;100.00
13015;BME280;6573;57.696;11.950;2023-02-11T04:53:55;100894.59;;;9.92;100.00
13015;BME280;6573;57.696;11.950;2023-02-11T04:56:23;100909.47;;;9.96;100.00
13015;BME280;6573;57.696;11.950;2023-02-11T04:58:53;100936.63;;;9.94;100.00
13015;BME280;6573;57.696;11.950;2023-02-11T05:01:21;100937.50;;;9.94;100.00
13015;BME280;6573;57.696;11.950;2023-02-11T05:03:50;100958.50;;;9.91;100.00
13015;BME280;6573;57.696;11.950;2023-02-11T05:06:18;100992.66;;;9.91;100.00
13015;BME280;6573;57.696;11.950;2023-02-11T05:08:46;101003.19;;;9.90;100.00
13015;BME280;6573;57.696;11.950;2023-02-11T05:11:17;101002.31;;;10.07;100.00
13015;BME280;6573;57.696;11.950;2023-02-11T05:13:45;100980.47;;;10.13;100.00
13015;BME280;6573;57.696;11.950;2023-02-11T05:16:15;100993.63;;;10.23;100.00
13015;BME280;6573;57.696;11.950;2023-02-11T05:18:44;101009.41;;;10.23;100.00
13015;BME280;6573;57.696;11.950;2023-02-11T05:21:14;101009.41;;;10.23;100.00
13015;BME280;6573;57.696;11.950;2023-02-11T05:23:43;101018.16;;;10.13;100.00
13015;BME280;6573;57.696;11.950;2023-02-11T05:26:12;101026.94;;;10.18;100.00
13015;BME280;6573;57.696;11.950;2023-02-11T05:28:41;101035.66;;;10.11;100.00
13015;BME280;6573;57.696;11.950;2023-02-11T05:31:10;101033.97;;;10.24;100.00
13015;BME280;6573;57.696;11.950;2023-02-11T05:33:42;101032.19;;;10.27;100.00
13015;BME280;6573;57.696;11.950;2023-02-11T05:36:11;101039.19;;;10.22;100.00
13015;BME280;6573;57.696;11.950;2023-02-11T05:38:40;101046.97;;;9.94;100.00
13015;BME280;6573;57.696;11.950;2023-02-11T05:41:09;101032.16;;;10.12;100.00
13015;BME280;6573;57.696;11.950;2023-02-11T05:43:38;101050.50;;;10.05;100.00
13015;BME280;6573;57.696;11.950;2023-02-11T05:46:07;101061.88;;;9.96;100.00
13015;BME280;6573;57.696;11.950;2023-02-11T05:48:36;101046.19;;;10.17;100.00
13015;BME280;6573;57.696;11.950;2023-02-11T05:51:06;101062.03;;;10.38;100.00
13015;BME280;6573;57.696;11.950;2023-02-11T05:53:34;101058.47;;;10.15;100.00
13015;BME280;6573;57.696;11.950;2023-02-11T05:56:03;101061.91;;;10.05;100.00
13015;BME280;6573;57.696;11.950;2023-02-11T05:58:31;101069.03;;;10.24;100.00
13015;BME280;6573;57.696;11.950;2023-02-11T06:00:59;101067.28;;;10.29;100.00
13015;BME280;6573;57.696;11.950;2023-02-11T06:03:27;101072.47;;;10.17;100.00
13015;BME280;6573;57.696;11.950;2023-02-11T06:05:56;101060.25;;;10.34;100.00
13015;BME280;6573;57.696;11.950;2023-02-11T06:08:25;101058.41;;;9.97;100.00
13015;BME280;6573;57.696;11.950;2023-02-11T06:10:54;101070.75;;;10.18;100.00
13015;BME280;6573;57.696;11.950;2023-02-11T06:13:27;101071.69;;;10.46;100.00
13015;BME280;6573;57.696;11.950;2023-02-11T06:15:57;101077.81;;;10.38;100.00
13015;BME280;6573;57.696;11.950;2023-02-11T06:18:26;101091.78;;;10.16;100.00
13015;BME280;6573;57.696;11.950;2023-02-11T06:20:55;101089.16;;;10.30;100.00
13015;BME280;6573;57.696;11.950;2023-02-11T06:23:23;101083.06;;;10.29;100.00
13015;BME280;6573;57.696;11.950;2023-02-11T06:26:00;101102.31;;;10.34;100.00
13015;BME280;6573;57.696;11.950;2023-02-11T06:28:29;101105.84;;;10.32;100.00
13015;BME280;6573;57.696;11.950;2023-02-11T06:30:58;101104.09;;;10.35;100.00
13015;BME280;6573;57.696;11.950;2023-02-11T06:33:32;101098.69;;;10.02;100.00
13015;BME280;6573;57.696;11.950;2023-02-11T06:36:01;101107.47;;;10.04;100.00
13015;BME280;6573;57.696;11.950;2023-02-11T06:38:30;101104.84;;;10.04;100.00
13015;BME280;6573;57.696;11.950;2023-02-11T06:40:59;101116.31;;;10.18;100.00
13015;BME280;6573;57.696;11.950;2023-02-11T06:43:28;101131.13;;;10.07;100.00
13015;BME280;6573;57.696;11.950;2023-02-11T06:45:58;101110.88;;;9.85;100.00
13015;BME280;6573;57.696;11.950;2023-02-11T06:48:26;101125.09;;;10.20;100.00
13015;BME280;6573;57.696;11.950;2023-02-11T06:50:55;101126.91;;;10.36;100.00
13015;BME280;6573;57.696;11.950;2023-02-11T06:53:23;101146.16;;;10.29;100.00
13015;BME280;6573;57.696;11.950;2023-02-11T06:55:51;101160.03;;;10.04;100.00
13015;BME280;6573;57.696;11.950;2023-02-11T06:58:20;101160.03;;;10.01;100.00
13015;BME280;6573;57.696;11.950;2023-02-11T07:00:49;101162.75;;;10.12;100.00
13015;BME280;6573;57.696;11.950;2023-02-11T07:03:18;101181.03;;;9.98;100.00
13015;BME280;6573;57.696;11.950;2023-02-11T07:05:46;101186.31;;;10.07;100.00
13015;BME280;6573;57.696;11.950;2023-02-11T07:08:15;101189.84;;;10.06;100.00
13015;BME280;6573;57.696;11.950;2023-02-11T07:10:43;101188.03;;;9.96;100.00
13015;BME280;6573;57.696;11.950;2023-02-11T07:13:11;101202.16;;;10.13;100.00
13015;BME280;6573;57.696;11.950;2023-02-11T07:15:41;101210.06;;;10.16;100.00
13015;BME280;6573;57.696;11.950;2023-02-11T07:18:13;101189.84;;;10.09;100.00
13015;BME280;6573;57.696;11.950;2023-02-11T07:20:42;101217.94;;;10.13;100.00
13015;BME280;6573;57.696;11.950;2023-02-11T07:23:10;101215.25;;;10.10;100.00
13015;BME280;6573;57.696;11.950;2023-02-11T07:25:39;101227.59;;;10.14;100.00
13015;BME280;6573;57.696;11.950;2023-02-11T07:28:07;101232.75;;;10.05;100.00
13015;BME280;6573;57.696;11.950;2023-02-11T07:30:36;101241.53;;;10.10;100.00
13015;BME280;6573;57.696;11.950;2023-02-11T07:33:05;101253.88;;;10.17;100.00
13015;BME280;6573;57.696;11.950;2023-02-11T07:35:33;101265.31;;;10.19;100.00
13015;BME280;6573;57.696;11.950;2023-02-11T07:38:02;101275.00;;;10.29;100.00
13015;BME280;6573;57.696;11.950;2023-02-11T07:40:30;101254.84;;;10.28;100.00
13015;BME280;6573;57.696;11.950;2023-02-11T07:42:59;101262.66;;;10.16;100.00
13015;BME280;6573;57.696;11.950;2023-02-11T07:45:27;101288.06;;;10.14;100.00
13015;BME280;6573;57.696;11.950;2023-02-11T07:47:56;101295.22;;;10.36;100.00
13015;BME280;6573;57.696;11.950;2023-02-11T07:50:26;101289.91;;;10.33;100.00
13015;BME280;6573;57.696;11.950;2023-02-11T07:52:54;101304.84;;;10.36;100.00
13015;BME280;6573;57.696;11.950;2023-02-11T07:55:23;101309.25;;;10.42;100.00
13015;BME280;6573;57.696;11.950;2023-02-11T07:57:52;101321.53;;;10.46;100.00
13015;BME280;6573;57.696;11.950;2023-02-11T08:00:20;101337.38;;;10.52;100.00
13015;BME280;6573;57.696;11.950;2023-02-11T08:02:49;101345.28;;;10.58;100.00
13015;BME280;6573;57.696;11.950;2023-02-11T08:05:18;101344.50;;;10.71;100.00
13015;BME280;6573;57.696;11.950;2023-02-11T08:07:49;101351.41;;;10.54;100.00
13015;BME280;6573;57.696;11.950;2023-02-11T08:10:18;101361.13;;;10.65;100.00
13015;BME280;6573;57.696;11.950;2023-02-11T08:12:47;101360.22;;;10.65;100.00
13015;BME280;6573;57.696;11.950;2023-02-11T08:15:15;101376.97;;;10.77;100.00
13015;BME280;6573;57.696;11.950;2023-02-11T08:17:44;101383.16;;;10.84;100.00
13015;BME280;6573;57.696;11.950;2023-02-11T08:20:12;101405.94;;;10.79;100.00
13015;BME280;6573;57.696;11.950;2023-02-11T08:22:40;101407.75;;;10.92;100.00
13015;BME280;6573;57.696;11.950;2023-02-11T08:25:28;101407.72;;;10.86;100.00
13015;BME280;6573;57.696;11.950;2023-02-11T08:27:57;101414.72;;;10.81;100.00
13015;BME280;6573;57.696;11.950;2023-02-11T08:30:32;101414.75;;;10.87;100.00
13015;BME280;6573;57.696;11.950;2023-02-11T08:33:04;101427.09;;;11.01;100.00
13015;BME280;6573;57.696;11.950;2023-02-11T08:35:34;101434.22;;;11.16;100.00
13015;BME280;6573;57.696;11.950;2023-02-11T08:38:02;101435.81;;;10.84;100.00
13015;BME280;6573;57.696;11.950;2023-02-11T08:40:32;101454.16;;;10.78;100.00
13015;BME280;6573;57.696;11.950;2023-02-11T08:43:00;101423.31;;;10.56;100.00
13015;BME280;6573;57.696;11.950;2023-02-11T08:45:33;101474.38;;;10.85;100.00
13015;BME280;6573;57.696;11.950;2023-02-11T08:48:05;101479.63;;;10.79;100.00
13015;BME280;6573;57.696;11.950;2023-02-11T08:50:34;101479.66;;;10.85;100.00
13015;BME280;6573;57.696;11.950;2023-02-11T08:53:04;101488.44;;;10.84;100.00
13015;BME280;6573;57.696;11.950;2023-02-11T08:55:34;101451.44;;;10.63;100.00
13015;BME280;6573;57.696;11.950;2023-02-11T08:58:02;101470.78;;;10.71;100.00
13015;BME280;6573;57.696;11.950;2023-02-11T09:00:30;101486.63;;;10.74;100.00
13015;BME280;6573;57.696;11.950;2023-02-11T09:02:58;101495.34;;;10.70;100.00
13015;BME280;6573;57.696;11.950;2023-02-11T09:05:27;101507.47;;;10.53;100.00
13015;BME280;6573;57.696;11.950;2023-02-11T09:07:55;101518.09;;;10.65;100.00
13015;BME280;6573;57.696;11.950;2023-02-11T09:10:23;101519.06;;;10.71;100.00
13015;BME280;6573;57.696;11.950;2023-02-11T09:12:53;101523.34;;;10.62;100.00
13015;BME280;6573;57.696;11.950;2023-02-11T09:15:21;101531.28;;;10.66;100.00
13015;BME280;6573;57.696;11.950;2023-02-11T09:17:49;101524.16;;;10.55;100.00
13015;BME280;6573;57.696;11.950;2023-02-11T09:20:18;101565.50;;;10.68;100.00
13015;BME280;6573;57.696;11.950;2023-02-11T09:22:47;101568.88;;;10.52;100.00
13015;BME280;6573;57.696;11.950;2023-02-11T09:25:16;101581.19;;;10.56;100.00
13015;BME280;6573;57.696;11.950;2023-02-11T09:27:45;101580.28;;;10.55;100.00
13015;BME280;6573;57.696;11.950;2023-02-11T09:30:15;101588.06;;;10.45;100.00
13015;BME280;6573;57.696;11.950;2023-02-11T09:32:44;101591.56;;;10.44;100.00
13015;BME280;6573;57.696;11.950;2023-02-11T09:35:12;101591.66;;;10.53;100.00
13015;BME280;6573;57.696;11.950;2023-02-11T09:37:43;101604.13;;;10.72;100.00
13015;BME280;6573;57.696;11.950;2023-02-11T09:40:12;101597.00;;;10.59;100.00
13015;BME280;6573;57.696;11.950;2023-02-11T09:42:47;101607.41;;;10.47;100.00
13015;BME280;6573;57.696;11.950;2023-02-11T09:45:22;101608.34;;;10.55;100.00
13015;BME280;6573;57.696;11.950;2023-02-11T09:47:55;101613.66;;;10.59;100.00
13015;BME280;6573;57.696;11.950;2023-02-11T09:50:29;101625.16;;;10.69;100.00
13015;BME280;6573;57.696;11.950;2023-02-11T09:53:03;101627.78;;;10.72;100.00
13015;BME280;6573;57.696;11.950;2023-02-11T09:55:34;101639.22;;;10.71;100.00
13015;BME280;6573;57.696;11.950;2023-02-11T09:58:11;101644.22;;;10.47;100.00
13015;BME280;6573;57.696;11.950;2023-02-11T10:00:44;101657.66;;;10.77;100.00
13015;BME280;6573;57.696;11.950;2023-02-11T10:03:47;101644.31;;;10.56;100.00
13015;BME280;6573;57.696;11.950;2023-02-11T10:06:40;101664.72;;;10.78;100.00
13015;BME280;6573;57.696;11.950;2023-02-11T10:09:20;101672.50;;;10.66;100.00
13015;BME280;6573;57.696;11.950;2023-02-11T10:12:02;101681.50;;;10.89;100.00
13015;BME280;6573;57.696;11.950;2023-02-11T10:14:54;101698.28;;;11.01;100.00
13015;BME280;6573;57.696;11.950;2023-02-11T10:17:33;101694.22;;;11.38;100.00
13015;BME280;6573;57.696;11.950;2023-02-11T10:20:19;101713.63;;;11.49;100.00
13015;BME280;6573;57.696;11.950;2023-02-11T10:22:51;101719.03;;;11.67;100.00
13015;BME280;6573;57.696;11.950;2023-02-11T10:25:23;101731.13;;;11.41;100.00
13015;BME280;6573;57.696;11.950;2023-02-11T10:27:54;101729.16;;;11.16;100.00
13015;BME280;6573;57.696;11.950;2023-02-11T10:30:27;101735.97;;;10.99;100.00
13015;BME280;6573;57.696;11.950;2023-02-11T10:33:03;101730.72;;;10.96;100.00
13015;BME280;6573;57.696;11.950;2023-02-11T10:35:33;101738.53;;;10.88;100.00
13015;BME280;6573;57.696;11.950;2023-02-11T10:38:02;101715.53;;;10.71;100.00
13015;BME280;6573;57.696;11.950;2023-02-11T10:40:31;101755.34;;;11.04;100.00
13015;BME280;6573;57.696;11.950;2023-02-11T10:43:02;101744.84;;;11.07;100.00
13015;BME280;6573;57.696;11.950;2023-02-11T10:45:55;101762.19;;;10.87;100.00
13015;BME280;6573;57.696;11.950;2023-02-11T10:48:41;101760.50;;;10.92;100.00
13015;BME280;6573;57.696;11.950;2023-02-11T10:51:17;101772.75;;;10.90;100.00
13015;BME280;6573;57.696;11.950;2023-02-11T10:53:47;101752.31;;;10.66;100.00
13015;BME280;6573;57.696;11.950;2023-02-11T10:56:21;101763.69;;;10.67;100.00
13015;BME280;6573;57.696;11.950;2023-02-11T10:58:57;101792.84;;;10.80;100.00
13015;BME280;6573;57.696;11.950;2023-02-11T11:01:44;101806.22;;;11.00;100.00
13015;BME280;6573;57.696;11.950;2023-02-11T11:04:42;101798.13;;;10.83;100.00
13015;BME280;6573;57.696;11.950;2023-02-11T11:07:17;101802.69;;;10.98;100.00
13015;BME280;6573;57.696;11.950;2023-02-11T11:09:49;101812.38;;;11.00;100.00
13015;BME280;6573;57.696;11.950;2023-02-11T11:12:27;101813.31;;;11.07;100.00
13015;BME280;6573;57.696;11.950;2023-02-11T11:14:58;101812.50;;;11.11;100.00
13015;BME280;6573;57.696;11.950;2023-02-11T11:17:27;101818.53;;;11.04;100.00
13015;BME280;6573;57.696;11.950;2023-02-11T11:20:17;101821.13;;;10.99;100.00
13015;BME280;6573;57.696;11.950;2023-02-11T11:22:47;101825.53;;;11.02;100.00
13015;BME280;6573;57.696;11.950;2023-02-11T11:25:24;101826.19;;;10.83;100.00
13015;BME280;6573;57.696;11.950;2023-02-11T11:27:55;101836.81;;;10.92;100.00
13015;BME280;6573;57.696;11.950;2023-02-11T11:30:30;101839.66;;;11.07;100.00
13015;BME280;6573;57.696;11.950;2023-02-11T11:32:59;101846.56;;;10.99;100.00
13015;BME280;6573;57.696;11.950;2023-02-11T11:35:30;101857.31;;;11.17;100.00
13015;BME280;6573;57.696;11.950;2023-02-11T11:38:02;101862.84;;;11.38;100.00
13015;BME280;6573;57.696;11.950;2023-02-11T11:40:32;101880.50;;;11.48;100.00
13015;BME280;6573;57.696;11.950;2023-02-11T11:43:05;101883.22;;;11.56;100.00
13015;BME280;6573;57.696;11.950;2023-02-11T11:45:34;101889.44;;;11.62;100.00
13015;BME280;6573;57.696;11.950;2023-02-11T11:48:08;101894.63;;;11.53;100.00
13015;BME280;6573;57.696;11.950;2023-02-11T11:50:44;101901.59;;;11.48;100.00
13015;BME280;6573;57.696;11.950;2023-02-11T11:53:21;101903.63;;;11.74;100.00
13015;BME280;6573;57.696;11.950;2023-02-11T11:55:58;101903.63;;;11.74;100.00
13015;BME280;6573;57.696;11.950;2023-02-11T11:58:29;101914.16;;;11.71;100.00
13015;BME280;6573;57.696;11.950;2023-02-11T12:01:04;101915.13;;;11.80;100.00
13015;BME280;6573;57.696;11.950;2023-02-11T12:04:06;101917.84;;;11.88;100.00
13015;BME280;6573;57.696;11.950;2023-02-11T12:06:48;101932.09;;;12.11;100.00
13015;BME280;6573;57.696;11.950;2023-02-11T12:09:27;101948.06;;;12.23;100.00
13015;BME280;6573;57.696;11.950;2023-02-11T12:12:09;101944.28;;;11.97;100.00
13015;BME280;6573;57.696;11.950;2023-02-11T12:14:50;101951.34;;;11.98;100.00
13015;BME280;6573;57.696;11.950;2023-02-11T12:17:43;101952.13;;;11.89;100.00
13015;BME280;6573;57.696;11.950;2023-02-11T12:20:22;101947.81;;;11.99;100.00
13015;BME280;6573;57.696;11.950;2023-02-11T12:23:19;101960.03;;;11.88;100.00
13015;BME280;6573;57.696;11.950;2023-02-11T12:25:55;101968.06;;;12.00;100.00
13015;BME280;6573;57.696;11.950;2023-02-11T12:28:34;101980.16;;;11.80;100.00
13015;BME280;6573;57.696;11.950;2023-02-11T12:31:23;101977.50;;;11.80;100.00
13015;BME280;6573;57.696;11.950;2023-02-11T12:34:18;101998.78;;;11.95;100.00
13015;BME280;6573;57.696;11.950;2023-02-11T12:36:59;101999.69;;;12.01;100.00
13015;BME280;6573;57.696;11.950;2023-02-11T12:39:38;102002.38;;;12.03;100.00
13015;BME280;6573;57.696;11.950;2023-02-11T12:42:28;102004.16;;;12.07;100.00
13015;BME280;6573;57.696;11.950;2023-02-11T12:45:25;102006.00;;;12.14;100.00
13015;BME280;6573;57.696;11.950;2023-02-11T12:48:05;102017.06;;;11.80;100.00
13015;BME280;6573;57.696;11.950;2023-02-11T12:50:41;102015.28;;;11.76;100.00
13015;BME280;6573;57.696;11.950;2023-02-11T12:53:26;102018.94;;;11.88;100.00
13015;BME280;6573;57.696;11.950;2023-02-11T12:56:04;102023.31;;;11.88;100.00
13015;BME280;6573;57.696;11.950;2023-02-11T12:58:35;102033.84;;;11.88;100.00
13015;BME280;6573;57.696;11.950;2023-02-11T13:01:18;102043.19;;;11.64;100.00
13015;BME280;6573;57.696;11.950;2023-02-11T13:03:52;102041.63;;;11.79;100.00
13015;BME280;6573;57.696;11.950;2023-02-11T13:06:28;102044.19;;;11.69;100.00
13015;BME280;6573;57.696;11.950;2023-02-11T13:09:00;102020.63;;;11.83;100.00
13015;BME280;6573;57.696;11.950;2023-02-11T13:11:36;102021.34;;;11.72;100.00